Time;durP1;ratioP1;P1;durP2;ratioP2;P2;SDS_P1;SDS_P2;PMS_P1;PMS_P2;Temp;Humidity;BMP_temperature;BMP_pressure;BME280_temperature;BME280_humidity;BME280_pressure;Samples;Min_cycle;Max_cycle;Signal;HPM_P1;HPM_P2
2023/06/13 00:01:03;;;;;;;;;;;17.00;67.80;;;;;;5074518;28;20355;-83
2023/06/13 00:03:29;;;;;;;;;;;17.00;67.60;;;;;;5074323;28;19924;-82
2023/06/13 00:05:55;;;;;;;;;;;17.00;66.80;;;;;;5075347;28;19920;-82
2023/06/13 00:08:24;;;;;;;;;;;16.90;67.70;;;;;;5074339;28;19920;-82
2023/06/13 00:10:50;;;;;;;;;;;16.90;66.90;;;;;;5074219;28;19928;-82
2023/06/13 00:13:16;;;;;;;;;;;16.90;66.80;;;;;;5075356;28;20343;-82
2023/06/13 00:15:49;;;;;;;;;;;16.90;67.70;;;;;;5074359;28;20258;-82
2023/06/13 00:18:16;;;;;;;;;;;16.80;67.10;;;;;;5075200;28;20011;-82
2023/06/13 00:20:41;;;;;;;;;;;16.80;66.20;;;;;;5074083;28;19981;-82
2023/06/13 00:23:08;;;;;;;;;;;16.80;66.20;;;;;;5074435;28;19920;-81
2023/06/13 00:25:34;;;;;;;;;;;16.80;66.30;;;;;;5075236;28;19927;-84
2023/06/13 00:28:00;;;;;;;;;;;16.80;65.70;;;;;;5075296;28;19920;-83
2023/06/13 00:30:25;;;;;;;;;;;16.80;66.00;;;;;;5074974;28;20255;-82
2023/06/13 00:32:54;;;;;;;;;;;16.80;65.90;;;;;;5075188;28;19927;-82
2023/06/13 00:35:20;;;;;;;;;;;16.80;66.20;;;;;;5074151;28;19924;-82
2023/06/13 00:37:47;;;;;;;;;;;16.80;66.90;;;;;;5075274;28;19924;-83
2023/06/13 00:40:12;;;;;;;;;;;16.70;67.30;;;;;;5074769;28;19920;-82
2023/06/13 00:42:38;;;;;;;;;;;16.60;66.60;;;;;;5073963;28;20262;-82
2023/06/13 00:45:24;;;;;;;;;;;16.50;66.60;;;;;;5073651;28;19978;-82
2023/06/13 00:47:51;;;;;;;;;;;16.40;67.20;;;;;;5074032;28;20321;-82
2023/06/13 00:50:18;;;;;;;;;;;16.40;66.40;;;;;;5056982;28;19971;-83
2023/06/13 00:52:44;;;;;;;;;;;16.40;66.90;;;;;;5073274;28;19967;-82
2023/06/13 00:55:10;;;;;;;;;;;16.40;66.40;;;;;;5073646;28;19920;-82
2023/06/13 00:57:38;;;;;;;;;;;16.40;67.60;;;;;;5073654;28;19998;-82
2023/06/13 01:00:05;;;;;;;;;;;16.40;66.80;;;;;;5074643;28;19920;-84
2023/06/13 01:02:33;;;;;;;;;;;16.40;66.70;;;;;;5073120;28;19920;-85
2023/06/13 01:05:02;;;;;;;;;;;16.40;66.60;;;;;;5073016;28;19932;-82
2023/06/13 01:07:33;;;;;;;;;;;16.40;67.00;;;;;;5074283;28;19920;-82
2023/06/13 01:09:59;;;;;;;;;;;16.40;67.50;;;;;;5073167;28;20011;-84
2023/06/13 01:12:28;;;;;;;;;;;16.40;67.40;;;;;;5057424;28;20454;-82
2023/06/13 01:15:11;;;;;;;;;;;16.40;66.50;;;;;;5074538;28;20389;-81
2023/06/13 01:17:41;;;;;;;;;;;16.40;66.50;;;;;;5074004;28;19927;-81
2023/06/13 01:20:10;;;;;;;;;;;16.40;66.50;;;;;;5074480;28;19920;-82
2023/06/13 01:22:52;;;;;;;;;;;16.40;66.60;;;;;;5073543;28;19920;-82
2023/06/13 01:25:28;;;;;;;;;;;16.30;66.80;;;;;;5073941;28;19920;-82
2023/06/13 01:27:55;;;;;;;;;;;16.30;66.80;;;;;;5076593;28;19921;-83
2023/06/13 01:30:21;;;;;;;;;;;16.30;67.00;;;;;;5076225;28;19920;-82
2023/06/13 01:32:47;;;;;;;;;;;16.20;66.50;;;;;;5074144;28;20253;-81
2023/06/13 01:35:13;;;;;;;;;;;16.20;66.40;;;;;;5073226;28;20331;-83
2023/06/13 01:37:39;;;;;;;;;;;16.20;66.50;;;;;;5073901;28;19924;-85
2023/06/13 01:40:07;;;;;;;;;;;16.20;66.70;;;;;;5073335;28;20011;-84
2023/06/13 01:42:33;;;;;;;;;;;16.20;66.40;;;;;;5074515;28;19928;-82
2023/06/13 01:44:59;;;;;;;;;;;16.10;66.50;;;;;;5077393;28;19928;-82
2023/06/13 01:47:32;;;;;;;;;;;16.10;67.40;;;;;;5058899;28;19975;-82
2023/06/13 01:50:10;;;;;;;;;;;16.00;66.80;;;;;;5076181;28;19920;-82
2023/06/13 01:52:41;;;;;;;;;;;16.00;67.10;;;;;;5074749;28;19920;-82
2023/06/13 01:55:09;;;;;;;;;;;16.00;67.40;;;;;;5073775;28;19920;-82
2023/06/13 01:57:44;;;;;;;;;;;16.00;67.30;;;;;;5073259;28;19927;-87
2023/06/13 02:00:11;;;;;;;;;;;16.00;67.80;;;;;;5072003;28;20394;-83
2023/06/13 02:02:38;;;;;;;;;;;15.90;68.50;;;;;;5072442;28;19920;-82
2023/06/13 02:05:03;;;;;;;;;;;15.90;68.30;;;;;;5072678;28;19920;-82
2023/06/13 02:07:31;;;;;;;;;;;15.90;69.40;;;;;;5055578;28;20266;-82
2023/06/13 02:09:57;;;;;;;;;;;15.80;69.10;;;;;;5072530;28;19924;-82
2023/06/13 02:12:22;;;;;;;;;;;15.80;69.20;;;;;;5056670;28;20007;-82
2023/06/13 02:14:48;;;;;;;;;;;15.70;69.60;;;;;;5072412;28;19975;-82
2023/06/13 02:17:14;;;;;;;;;;;15.60;69.50;;;;;;5072440;28;19920;-83
2023/06/13 02:19:39;;;;;;;;;;;15.60;70.10;;;;;;5056156;28;19924;-82
2023/06/13 02:22:05;;;;;;;;;;;15.50;70.40;;;;;;5072856;28;19944;-83
2023/06/13 02:24:31;;;;;;;;;;;15.50;70.50;;;;;;5073406;28;19928;-82
2023/06/13 02:26:56;;;;;;;;;;;15.50;70.50;;;;;;5072284;28;19921;-82
2023/06/13 02:29:22;;;;;;;;;;;15.50;70.90;;;;;;5073485;28;19920;-83
2023/06/13 02:31:47;;;;;;;;;;;15.50;70.50;;;;;;5074034;28;19921;-84
2023/06/13 02:34:13;;;;;;;;;;;15.50;70.80;;;;;;5073389;28;19974;-82
2023/06/13 02:36:38;;;;;;;;;;;15.50;70.60;;;;;;5076093;28;19982;-83
2023/06/13 02:39:04;;;;;;;;;;;15.40;71.70;;;;;;5077195;28;20359;-83
2023/06/13 02:41:30;;;;;;;;;;;15.40;72.00;;;;;;5076084;28;19920;-82
2023/06/13 02:43:55;;;;;;;;;;;15.30;72.20;;;;;;5075896;28;20003;-82
2023/06/13 02:46:21;;;;;;;;;;;15.20;72.30;;;;;;5059115;28;19982;-82
2023/06/13 02:48:46;;;;;;;;;;;15.20;72.80;;;;;;5076432;28;20259;-82
2023/06/13 02:51:12;;;;;;;;;;;15.20;73.00;;;;;;5076201;28;19927;-82
2023/06/13 02:53:37;;;;;;;;;;;15.10;74.30;;;;;;5075952;28;19942;-83
2023/06/13 02:56:03;;;;;;;;;;;15.00;75.00;;;;;;5075926;28;19927;-83
2023/06/13 02:58:29;;;;;;;;;;;15.00;73.70;;;;;;5075585;28;19930;-83
2023/06/13 03:00:54;;;;;;;;;;;14.90;74.30;;;;;;5059591;28;19921;-82
2023/06/13 03:03:21;;;;;;;;;;;14.90;74.00;;;;;;5059144;28;19924;-82
2023/06/13 03:05:49;;;;;;;;;;;14.90;74.60;;;;;;5076822;28;19920;-82
2023/06/13 03:08:18;;;;;;;;;;;14.90;75.10;;;;;;5075795;28;19920;-83
2023/06/13 03:10:45;;;;;;;;;;;14.90;75.70;;;;;;5076721;28;19921;-83
2023/06/13 03:13:11;;;;;;;;;;;14.80;76.10;;;;;;5076082;28;19965;-83
2023/06/13 03:15:36;;;;;;;;;;;14.80;75.70;;;;;;5075764;28;19924;-82
2023/06/13 03:18:03;;;;;;;;;;;14.80;77.10;;;;;;5076507;28;20381;-82
2023/06/13 03:20:30;;;;;;;;;;;14.70;77.70;;;;;;5075790;28;19924;-82
2023/06/13 03:22:55;;;;;;;;;;;14.60;77.80;;;;;;5075588;28;20363;-82
2023/06/13 03:25:21;;;;;;;;;;;14.50;78.40;;;;;;5075768;28;19957;-82
2023/06/13 03:27:47;;;;;;;;;;;14.50;77.10;;;;;;5075907;28;19920;-82
2023/06/13 03:30:13;;;;;;;;;;;14.50;79.70;;;;;;5075872;28;19927;-83
2023/06/13 03:32:38;;;;;;;;;;;14.40;79.30;;;;;;5075429;28;19920;-83
2023/06/13 03:35:04;;;;;;;;;;;14.40;78.80;;;;;;5075922;28;19974;-82
2023/06/13 03:37:29;;;;;;;;;;;14.40;78.70;;;;;;5075878;28;19927;-82
2023/06/13 03:39:55;;;;;;;;;;;14.30;80.50;;;;;;5076149;28;19921;-83
2023/06/13 03:42:21;;;;;;;;;;;14.30;80.50;;;;;;5076290;28;19970;-82
2023/06/13 03:44:49;;;;;;;;;;;14.30;80.90;;;;;;5075936;28;19920;-82
2023/06/13 03:47:15;;;;;;;;;;;14.30;80.90;;;;;;5074417;28;19920;-83
2023/06/13 03:49:41;;;;;;;;;;;14.30;80.60;;;;;;5075947;28;19981;-82
2023/06/13 03:52:06;;;;;;;;;;;14.30;79.90;;;;;;5074718;28;19927;-82
2023/06/13 03:54:32;;;;;;;;;;;14.40;81.00;;;;;;5074782;28;19925;-86
2023/06/13 03:56:58;;;;;;;;;;;14.40;82.30;;;;;;5075107;28;19924;-82
2023/06/13 03:59:23;;;;;;;;;;;14.40;81.90;;;;;;5074542;28;20381;-82
2023/06/13 04:01:49;;;;;;;;;;;14.50;81.60;;;;;;5074407;28;20386;-82
2023/06/13 04:04:14;;;;;;;;;;;14.50;81.20;;;;;;5074739;28;19920;-83
2023/06/13 04:06:41;;;;;;;;;;;14.60;81.30;;;;;;5075815;28;19925;-82
2023/06/13 04:09:06;;;;;;;;;;;14.60;81.00;;;;;;5075741;28;19974;-82
2023/06/13 04:11:33;;;;;;;;;;;14.70;81.60;;;;;;5075292;28;19921;-83
2023/06/13 04:13:59;;;;;;;;;;;14.70;81.50;;;;;;5074216;28;19927;-82
2023/06/13 04:16:25;;;;;;;;;;;14.80;80.50;;;;;;5074329;28;20003;-82
2023/06/13 04:18:54;;;;;;;;;;;14.90;79.90;;;;;;5074285;28;19968;-83
2023/06/13 04:21:21;;;;;;;;;;;14.90;80.10;;;;;;5057811;28;19920;-82
2023/06/13 04:23:48;;;;;;;;;;;15.00;80.30;;;;;;5074221;28;19921;-83
2023/06/13 04:26:17;;;;;;;;;;;15.00;80.40;;;;;;5074984;28;19927;-83
2023/06/13 04:28:47;;;;;;;;;;;15.10;79.80;;;;;;5074850;28;20282;-82
2023/06/13 04:31:13;;;;;;;;;;;15.10;79.70;;;;;;5075051;28;19928;-83
2023/06/13 04:33:39;;;;;;;;;;;15.20;79.20;;;;;;5074929;28;19924;-82
2023/06/13 04:36:05;;;;;;;;;;;15.20;79.40;;;;;;5074781;28;20010;-82
2023/06/13 04:38:34;;;;;;;;;;;15.30;79.90;;;;;;5073899;28;19928;-84
2023/06/13 04:41:00;;;;;;;;;;;15.40;78.70;;;;;;5073878;28;20003;-82
2023/06/13 04:43:28;;;;;;;;;;;15.40;78.90;;;;;;5074813;28;19921;-82
2023/06/13 04:45:55;;;;;;;;;;;15.50;78.60;;;;;;5073548;28;20273;-82
2023/06/13 04:48:25;;;;;;;;;;;15.60;78.90;;;;;;5073630;28;19932;-84
2023/06/13 04:50:51;;;;;;;;;;;15.80;78.10;;;;;;5074224;28;19921;-82
2023/06/13 04:53:21;;;;;;;;;;;16.20;76.90;;;;;;5073558;28;19921;-82
2023/06/13 04:55:48;;;;;;;;;;;16.30;76.70;;;;;;5073475;28;19921;-83
2023/06/13 04:58:14;;;;;;;;;;;16.30;76.70;;;;;;5073794;28;19974;-83
2023/06/13 05:00:40;;;;;;;;;;;16.30;77.70;;;;;;5074091;28;19929;-82
2023/06/13 05:03:06;;;;;;;;;;;16.40;77.00;;;;;;5073232;28;19920;-84
2023/06/13 05:05:32;;;;;;;;;;;16.60;77.50;;;;;;5073677;28;19927;-82
2023/06/13 05:07:59;;;;;;;;;;;16.70;76.50;;;;;;5075063;28;19921;-83
2023/06/13 05:10:25;;;;;;;;;;;16.70;76.90;;;;;;5057103;28;19924;-83
2023/06/13 05:12:51;;;;;;;;;;;17.00;76.80;;;;;;5076638;28;20338;-83
2023/06/13 05:15:18;;;;;;;;;;;17.40;76.20;;;;;;5076142;28;20002;-83
2023/06/13 05:17:46;;;;;;;;;;;17.90;75.70;;;;;;5072890;28;19920;-85
2023/06/13 05:20:12;;;;;;;;;;;18.50;73.80;;;;;;5074091;28;19920;-85
2023/06/13 05:22:39;;;;;;;;;;;19.00;72.90;;;;;;5073242;28;19920;-84
2023/06/13 05:25:08;;;;;;;;;;;19.40;71.60;;;;;;5073123;28;19920;-83
2023/06/13 05:27:34;;;;;;;;;;;19.90;69.90;;;;;;5072670;28;19926;-84
2023/06/13 05:30:00;;;;;;;;;;;20.20;69.80;;;;;;5073211;28;19925;-82
2023/06/13 05:32:25;;;;;;;;;;;20.50;68.60;;;;;;5073015;28;19921;-82
2023/06/13 05:34:51;;;;;;;;;;;20.70;66.70;;;;;;5074150;28;19924;-81
2023/06/13 05:37:17;;;;;;;;;;;21.00;67.20;;;;;;5073879;28;20364;-80
2023/06/13 05:39:43;;;;;;;;;;;21.30;66.40;;;;;;5074607;28;19920;-82
2023/06/13 05:42:09;;;;;;;;;;;21.50;66.60;;;;;;5073898;28;20374;-81
2023/06/13 05:44:34;;;;;;;;;;;21.80;64.60;;;;;;5073731;28;19921;-81
2023/06/13 05:47:00;;;;;;;;;;;22.00;65.00;;;;;;5073374;28;19927;-81
2023/06/13 05:49:28;;;;;;;;;;;22.20;64.50;;;;;;5074585;28;19920;-82
2023/06/13 05:51:54;;;;;;;;;;;22.50;64.30;;;;;;5073410;28;20306;-84
2023/06/13 05:54:19;;;;;;;;;;;22.70;62.90;;;;;;5073674;28;19924;-81
2023/06/13 05:56:45;;;;;;;;;;;22.80;61.80;;;;;;5072856;28;19926;-83
2023/06/13 05:59:14;;;;;;;;;;;22.90;61.30;;;;;;5073460;28;20011;-82
2023/06/13 06:01:43;;;;;;;;;;;23.10;61.00;;;;;;5055993;28;19924;-86
2023/06/13 06:04:09;;;;;;;;;;;23.10;59.90;;;;;;5072834;28;19920;-81
2023/06/13 06:06:35;;;;;;;;;;;23.30;60.50;;;;;;5073583;28;19921;-82
2023/06/13 06:09:00;;;;;;;;;;;23.40;59.20;;;;;;5075520;28;19974;-82
2023/06/13 06:11:26;;;;;;;;;;;23.60;59.10;;;;;;5060904;28;20347;-82
2023/06/13 06:13:52;;;;;;;;;;;23.60;58.60;;;;;;5077732;28;20028;-82
2023/06/13 06:16:17;;;;;;;;;;;23.90;59.00;;;;;;5076358;28;19921;-82
2023/06/13 06:18:43;;;;;;;;;;;24.00;58.90;;;;;;5078088;28;20003;-81
2023/06/13 06:21:09;;;;;;;;;;;24.10;57.70;;;;;;5077880;28;19947;-85
2023/06/13 06:23:36;;;;;;;;;;;24.30;57.80;;;;;;5059838;28;20057;-81
2023/06/13 06:26:02;;;;;;;;;;;24.50;57.40;;;;;;5077236;28;19921;-82
2023/06/13 06:28:27;;;;;;;;;;;24.70;58.30;;;;;;5077467;28;19920;-81
2023/06/13 06:30:53;;;;;;;;;;;24.80;57.50;;;;;;5076322;28;19928;-82
2023/06/13 06:33:18;;;;;;;;;;;25.00;55.30;;;;;;5077060;28;19943;-81
2023/06/13 06:35:45;;;;;;;;;;;25.10;56.60;;;;;;5075828;28;19974;-84
2023/06/13 06:38:10;;;;;;;;;;;25.00;55.60;;;;;;5076788;28;20024;-82
2023/06/13 06:40:36;;;;;;;;;;;25.10;54.70;;;;;;5077013;28;19974;-81
2023/06/13 06:43:01;;;;;;;;;;;25.10;54.50;;;;;;5076026;28;19920;-81
2023/06/13 06:45:27;;;;;;;;;;;25.00;53.80;;;;;;5075916;28;19920;-81
2023/06/13 06:47:52;;;;;;;;;;;25.10;55.20;;;;;;5076862;28;19921;-81
2023/06/13 06:50:18;;;;;;;;;;;25.20;53.80;;;;;;5076694;28;20024;-82
2023/06/13 06:52:44;;;;;;;;;;;25.30;54.80;;;;;;5076742;28;19920;-85
2023/06/13 06:55:09;;;;;;;;;;;25.40;54.80;;;;;;5077722;28;19931;-81
2023/06/13 06:57:35;;;;;;;;;;;25.40;55.30;;;;;;5075836;28;20351;-81
2023/06/13 07:00:01;;;;;;;;;;;25.70;54.80;;;;;;5076763;28;20363;-86
2023/06/13 07:02:26;;;;;;;;;;;25.90;53.30;;;;;;5076720;28;19943;-82
2023/06/13 07:04:52;;;;;;;;;;;26.10;53.50;;;;;;5077103;28;19921;-81
2023/06/13 07:07:17;;;;;;;;;;;26.10;53.50;;;;;;5075356;28;20245;-80
2023/06/13 07:09:43;;;;;;;;;;;26.10;54.00;;;;;;5076631;28;19973;-81
2023/06/13 07:12:09;;;;;;;;;;;26.10;53.50;;;;;;5076688;28;19920;-82
2023/06/13 07:14:35;;;;;;;;;;;26.00;53.20;;;;;;5076588;28;19921;-81
2023/06/13 07:17:00;;;;;;;;;;;26.10;53.50;;;;;;5076534;28;20297;-81
2023/06/13 07:19:26;;;;;;;;;;;26.30;53.60;;;;;;5075923;28;20259;-82
2023/06/13 07:21:52;;;;;;;;;;;26.30;53.60;;;;;;5075970;28;19921;-82
2023/06/13 07:24:17;;;;;;;;;;;26.50;53.70;;;;;;5077095;28;19920;-81
2023/06/13 07:26:43;;;;;;;;;;;26.70;53.60;;;;;;5076374;28;20370;-82
2023/06/13 07:29:09;;;;;;;;;;;26.70;52.10;;;;;;5076440;28;19924;-82
2023/06/13 07:31:36;;;;;;;;;;;26.70;52.40;;;;;;5076470;28;19925;-81
2023/06/13 07:34:01;;;;;;;;;;;26.70;52.20;;;;;;5075122;28;19973;-81
2023/06/13 07:36:27;;;;;;;;;;;26.60;52.30;;;;;;5074759;28;19924;-82
2023/06/13 07:38:52;;;;;;;;;;;26.60;52.10;;;;;;5075975;28;20271;-82
2023/06/13 07:41:18;;;;;;;;;;;26.60;51.30;;;;;;5074979;28;19920;-81
2023/06/13 07:43:44;;;;;;;;;;;26.60;53.00;;;;;;5074552;28;19928;-81
2023/06/13 07:46:10;;;;;;;;;;;26.70;52.70;;;;;;5076063;28;19920;-82
2023/06/13 07:48:35;;;;;;;;;;;26.90;53.70;;;;;;5075780;28;19927;-81
2023/06/13 07:51:02;;;;;;;;;;;27.00;51.90;;;;;;5076372;28;19973;-81
2023/06/13 07:53:27;;;;;;;;;;;27.00;53.20;;;;;;5075955;28;19920;-82
2023/06/13 07:55:55;;;;;;;;;;;27.10;53.20;;;;;;5075934;28;19920;-81
2023/06/13 07:58:21;;;;;;;;;;;27.00;51.80;;;;;;5075667;28;19924;-82
2023/06/13 08:00:46;;;;;;;;;;;27.10;52.00;;;;;;5076976;28;19943;-81
2023/06/13 08:03:12;;;;;;;;;;;27.10;50.60;;;;;;5075751;28;20032;-81
2023/06/13 08:05:37;;;;;;;;;;;27.10;52.20;;;;;;5075693;28;19974;-80
2023/06/13 08:08:03;;;;;;;;;;;27.20;51.10;;;;;;5074771;28;19927;-81
2023/06/13 08:10:29;;;;;;;;;;;27.10;51.40;;;;;;5075700;28;19996;-81
2023/06/13 08:12:54;;;;;;;;;;;27.00;52.40;;;;;;5075849;28;20250;-80
2023/06/13 08:15:20;;;;;;;;;;;27.10;52.90;;;;;;5075580;28;20363;-81
2023/06/13 08:17:46;;;;;;;;;;;27.10;50.70;;;;;;5076195;28;19920;-81
2023/06/13 08:20:11;;;;;;;;;;;27.20;52.90;;;;;;5075547;28;19967;-81
2023/06/13 08:22:38;;;;;;;;;;;27.40;52.30;;;;;;5075416;28;20058;-80
2023/06/13 08:25:04;;;;;;;;;;;27.50;51.70;;;;;;5075871;28;19920;-81
2023/06/13 08:27:30;;;;;;;;;;;27.70;51.90;;;;;;5075010;28;19925;-81
2023/06/13 08:29:56;;;;;;;;;;;27.80;50.00;;;;;;5074902;28;19927;-81
2023/06/13 08:32:22;;;;;;;;;;;27.70;51.40;;;;;;5075488;28;19920;-82
2023/06/13 08:34:47;;;;;;;;;;;27.60;50.70;;;;;;5078640;28;19927;-82
2023/06/13 08:37:13;;;;;;;;;;;27.70;52.30;;;;;;5059844;28;20417;-82
2023/06/13 08:39:39;;;;;;;;;;;27.80;52.50;;;;;;5076341;28;19985;-81
2023/06/13 08:42:06;;;;;;;;;;;27.90;51.00;;;;;;5075483;28;19920;-81
2023/06/13 08:44:32;;;;;;;;;;;27.80;49.70;;;;;;5074465;28;20363;-82
2023/06/13 08:46:58;;;;;;;;;;;27.80;51.20;;;;;;5074673;28;19920;-81
2023/06/13 08:49:23;;;;;;;;;;;27.70;49.50;;;;;;5074880;28;20406;-82
2023/06/13 08:51:50;;;;;;;;;;;27.80;49.80;;;;;;5075807;28;19978;-81
2023/06/13 08:54:17;;;;;;;;;;;27.90;51.90;;;;;;5074760;28;19921;-82
2023/06/13 08:56:43;;;;;;;;;;;28.30;49.90;;;;;;5074859;28;19927;-81
2023/06/13 08:59:15;;;;;;;;;;;28.20;50.60;;;;;;5075252;28;20006;-81
2023/06/13 09:01:44;;;;;;;;;;;28.20;50.70;;;;;;5075367;28;19924;-82
2023/06/13 09:04:10;;;;;;;;;;;28.20;49.60;;;;;;5074770;28;19925;-82
2023/06/13 09:06:37;;;;;;;;;;;28.20;50.30;;;;;;5073507;28;19964;-82
2023/06/13 09:09:03;;;;;;;;;;;28.20;50.10;;;;;;5073333;28;19924;-81
2023/06/13 09:11:29;;;;;;;;;;;28.20;49.70;;;;;;5074514;28;19989;-81
2023/06/13 09:13:58;;;;;;;;;;;28.20;49.80;;;;;;5073796;28;19920;-81
2023/06/13 09:16:24;;;;;;;;;;;28.40;50.90;;;;;;5075092;28;19927;-82
2023/06/13 09:18:49;;;;;;;;;;;28.50;48.90;;;;;;5073426;28;20267;-81
2023/06/13 09:21:16;;;;;;;;;;;28.60;49.60;;;;;;5074371;28;19928;-82
2023/06/13 09:23:42;;;;;;;;;;;28.70;50.10;;;;;;5075173;28;19921;-81
2023/06/13 09:26:08;;;;;;;;;;;28.90;50.60;;;;;;5074935;28;20401;-82
2023/06/13 09:28:37;;;;;;;;;;;29.10;49.00;;;;;;5073931;28;19921;-82
2023/06/13 09:31:02;;;;;;;;;;;29.10;47.80;;;;;;5074005;28;19928;-83
2023/06/13 09:33:28;;;;;;;;;;;29.00;47.50;;;;;;5073390;28;19920;-81
2023/06/13 09:35:54;;;;;;;;;;;28.90;47.90;;;;;;5074151;28;19920;-83
2023/06/13 09:38:24;;;;;;;;;;;28.80;48.50;;;;;;5073903;28;19924;-81
2023/06/13 09:40:52;;;;;;;;;;;29.00;48.90;;;;;;5074335;28;19974;-82
2023/06/13 09:43:17;;;;;;;;;;;29.10;48.80;;;;;;5073821;28;19921;-82
2023/06/13 09:45:43;;;;;;;;;;;29.20;48.00;;;;;;5074035;28;19974;-82
2023/06/13 09:48:09;;;;;;;;;;;29.40;48.00;;;;;;5074002;28;19927;-82
2023/06/13 09:50:36;;;;;;;;;;;29.60;47.00;;;;;;5074378;28;19927;-81
2023/06/13 09:53:02;;;;;;;;;;;29.70;47.70;;;;;;5074044;28;19924;-83
2023/06/13 09:55:27;;;;;;;;;;;29.60;46.50;;;;;;5073912;28;19974;-82
2023/06/13 09:57:53;;;;;;;;;;;29.50;45.50;;;;;;5073728;28;19936;-89
2023/06/13 10:00:20;;;;;;;;;;;29.40;45.70;;;;;;5072338;28;19920;-82
2023/06/13 10:02:46;;;;;;;;;;;29.30;44.90;;;;;;5073977;28;19921;-82
2023/06/13 10:05:12;;;;;;;;;;;29.30;45.60;;;;;;5074619;28;19921;-83
2023/06/13 10:07:38;;;;;;;;;;;29.40;45.50;;;;;;5073852;28;19921;-84
2023/06/13 10:10:03;;;;;;;;;;;29.40;46.00;;;;;;5074030;28;19920;-81
2023/06/13 10:12:31;;;;;;;;;;;29.40;45.60;;;;;;5073871;28;19946;-83
2023/06/13 10:15:00;;;;;;;;;;;29.50;45.70;;;;;;5073847;28;19927;-81
2023/06/13 10:17:27;;;;;;;;;;;29.50;44.00;;;;;;5073724;28;19927;-81
2023/06/13 10:19:58;;;;;;;;;;;29.40;45.20;;;;;;5072575;28;20308;-82
2023/06/13 10:22:23;;;;;;;;;;;29.40;44.70;;;;;;5074140;28;19968;-82
2023/06/13 10:24:50;;;;;;;;;;;29.60;44.10;;;;;;5074117;28;19968;-83
2023/06/13 10:27:18;;;;;;;;;;;29.80;44.90;;;;;;5072055;28;20426;-82
2023/06/13 10:29:56;;;;;;;;;;;29.80;44.40;;;;;;5073970;28;20024;-83
2023/06/13 10:32:41;;;;;;;;;;;29.80;44.70;;;;;;5074091;28;19942;-82
2023/06/13 10:35:09;;;;;;;;;;;29.70;43.50;;;;;;5073079;28;19928;-83
2023/06/13 10:37:37;;;;;;;;;;;29.70;44.00;;;;;;5073184;28;20426;-83
2023/06/13 10:40:04;;;;;;;;;;;29.70;45.80;;;;;;5073944;28;19966;-82
2023/06/13 10:42:36;;;;;;;;;;;29.80;44.50;;;;;;5073419;28;19931;-81
2023/06/13 10:45:07;;;;;;;;;;;29.90;44.20;;;;;;5073227;28;19931;-82
2023/06/13 10:47:33;;;;;;;;;;;29.90;42.90;;;;;;5072928;28;19924;-83
2023/06/13 10:50:01;;;;;;;;;;;29.90;43.60;;;;;;5074288;28;19947;-82
2023/06/13 10:52:28;;;;;;;;;;;29.90;43.40;;;;;;5072770;28;20023;-82
2023/06/13 10:54:55;;;;;;;;;;;30.00;43.60;;;;;;5072720;28;19971;-82
2023/06/13 10:57:21;;;;;;;;;;;30.10;42.30;;;;;;5076832;28;19936;-82
2023/06/13 10:59:49;;;;;;;;;;;30.10;42.70;;;;;;5076548;28;20329;-82
2023/06/13 11:02:17;;;;;;;;;;;30.10;41.50;;;;;;5076876;28;20356;-82
2023/06/13 11:04:50;;;;;;;;;;;30.20;42.30;;;;;;5076800;28;19932;-82
2023/06/13 11:07:25;;;;;;;;;;;30.00;41.90;;;;;;5076795;28;19940;-82
2023/06/13 11:10:04;;;;;;;;;;;30.00;42.10;;;;;;5077289;28;19971;-83
2023/06/13 11:12:29;;;;;;;;;;;30.00;42.60;;;;;;5076572;28;19928;-82
2023/06/13 11:14:59;;;;;;;;;;;29.80;39.90;;;;;;5076671;28;20007;-81
2023/06/13 11:17:24;;;;;;;;;;;29.90;42.80;;;;;;5076328;28;19925;-83
2023/06/13 11:19:56;;;;;;;;;;;30.10;42.30;;;;;;5076688;28;19931;-81
2023/06/13 11:22:22;;;;;;;;;;;30.20;40.60;;;;;;5076777;28;19970;-81
2023/06/13 11:24:48;;;;;;;;;;;30.40;41.30;;;;;;5058693;28;19928;-81
2023/06/13 11:27:16;;;;;;;;;;;30.40;39.60;;;;;;5076374;28;19921;-82
2023/06/13 11:29:45;;;;;;;;;;;30.30;40.20;;;;;;5075214;28;20359;-81
2023/06/13 11:32:11;;;;;;;;;;;30.30;41.30;;;;;;5077270;28;20255;-81
2023/06/13 11:34:46;;;;;;;;;;;30.30;40.70;;;;;;5076320;28;19927;-81
2023/06/13 11:37:30;;;;;;;;;;;30.20;39.50;;;;;;5076341;28;20260;-81
2023/06/13 11:39:56;;;;;;;;;;;30.40;41.00;;;;;;5076248;28;20351;-81
2023/06/13 11:42:22;;;;;;;;;;;30.60;41.20;;;;;;5075308;28;20367;-81
2023/06/13 11:44:47;;;;;;;;;;;30.70;39.90;;;;;;5075569;28;19950;-81
2023/06/13 11:47:13;;;;;;;;;;;30.60;39.80;;;;;;5076065;28;19920;-82
2023/06/13 11:49:39;;;;;;;;;;;30.50;40.30;;;;;;5075719;28;20334;-81
2023/06/13 11:52:12;;;;;;;;;;;30.60;39.50;;;;;;5076299;28;19920;-82
2023/06/13 11:54:40;;;;;;;;;;;30.50;39.50;;;;;;5076440;28;19927;-82
2023/06/13 11:57:06;;;;;;;;;;;30.50;40.10;;;;;;5075965;28;19963;-81
2023/06/13 11:59:32;;;;;;;;;;;30.40;40.20;;;;;;5074970;28;19975;-81
2023/06/13 12:01:58;;;;;;;;;;;30.60;40.10;;;;;;5076161;28;19920;-81
2023/06/13 12:04:24;;;;;;;;;;;30.70;40.10;;;;;;5076367;28;19921;-82
2023/06/13 12:06:51;;;;;;;;;;;30.70;40.40;;;;;;5075055;28;20409;-81
2023/06/13 12:09:17;;;;;;;;;;;30.60;40.00;;;;;;5075699;28;19921;-81
2023/06/13 12:11:42;;;;;;;;;;;30.60;40.20;;;;;;5075565;28;19920;-83
2023/06/13 12:14:08;;;;;;;;;;;30.70;40.10;;;;;;5075535;28;19920;-81
2023/06/13 12:16:34;;;;;;;;;;;30.80;39.70;;;;;;5075567;28;19920;-81
2023/06/13 12:19:00;;;;;;;;;;;30.70;40.80;;;;;;5075296;28;19924;-81
2023/06/13 12:21:28;;;;;;;;;;;30.70;40.30;;;;;;5075469;28;19920;-81
2023/06/13 12:23:54;;;;;;;;;;;30.60;40.30;;;;;;5075071;28;20325;-83
2023/06/13 12:26:20;;;;;;;;;;;30.70;38.10;;;;;;5073836;28;19924;-82
2023/06/13 12:28:47;;;;;;;;;;;30.60;39.20;;;;;;5075153;28;19928;-81
2023/06/13 12:31:13;;;;;;;;;;;30.70;40.00;;;;;;5075192;28;19921;-82
2023/06/13 12:33:39;;;;;;;;;;;30.70;39.80;;;;;;5075180;28;19927;-81
2023/06/13 12:36:05;;;;;;;;;;;30.70;41.90;;;;;;5074658;28;19921;-82
2023/06/13 12:38:31;;;;;;;;;;;30.80;39.90;;;;;;5075534;28;20011;-81
2023/06/13 12:40:57;;;;;;;;;;;30.80;39.30;;;;;;5074935;28;19920;-81
2023/06/13 12:43:26;;;;;;;;;;;30.80;40.40;;;;;;5074885;28;19927;-81
2023/06/13 12:45:54;;;;;;;;;;;30.90;40.90;;;;;;5057881;28;19927;-82
2023/06/13 12:48:20;;;;;;;;;;;30.90;40.30;;;;;;5074688;28;19924;-81
2023/06/13 12:50:47;;;;;;;;;;;31.10;39.60;;;;;;5073489;28;20006;-82
2023/06/13 12:53:13;;;;;;;;;;;31.20;40.70;;;;;;5075482;28;19925;-81
2023/06/13 12:55:39;;;;;;;;;;;31.20;38.80;;;;;;5078036;28;20327;-80
2023/06/13 12:58:23;;;;;;;;;;;30.90;39.60;;;;;;5076841;28;19961;-81
2023/06/13 13:00:51;;;;;;;;;;;30.80;40.00;;;;;;5075814;28;19920;-83
2023/06/13 13:03:17;;;;;;;;;;;30.80;41.20;;;;;;5075261;28;19959;-83
2023/06/13 13:05:43;;;;;;;;;;;30.70;38.50;;;;;;5074542;28;19921;-82
2023/06/13 13:08:08;;;;;;;;;;;30.50;39.60;;;;;;5074478;28;19924;-81
2023/06/13 13:10:34;;;;;;;;;;;30.40;40.00;;;;;;5074498;28;20335;-82
2023/06/13 13:13:00;;;;;;;;;;;30.40;39.60;;;;;;5074369;28;19931;-82
2023/06/13 13:15:25;;;;;;;;;;;30.40;41.00;;;;;;5073157;28;20282;-81
2023/06/13 13:17:51;;;;;;;;;;;30.40;39.70;;;;;;5074554;28;19928;-82
2023/06/13 13:20:17;;;;;;;;;;;30.10;40.80;;;;;;5074911;28;19971;-81
2023/06/13 13:22:42;;;;;;;;;;;30.20;39.40;;;;;;5074134;28;20011;-82
2023/06/13 13:25:08;;;;;;;;;;;30.20;39.50;;;;;;5074620;28;20255;-81
2023/06/13 13:27:33;;;;;;;;;;;30.20;40.30;;;;;;5073267;28;19920;-83
2023/06/13 13:29:59;;;;;;;;;;;30.30;41.00;;;;;;5073821;28;20040;-81
2023/06/13 13:32:25;;;;;;;;;;;30.30;39.50;;;;;;5074471;28;20011;-82
2023/06/13 13:34:50;;;;;;;;;;;30.10;39.70;;;;;;5056882;28;20400;-81
2023/06/13 13:37:16;;;;;;;;;;;29.90;40.00;;;;;;5074129;28;19943;-81
2023/06/13 13:39:42;;;;;;;;;;;29.90;39.70;;;;;;5074152;28;20025;-80
2023/06/13 13:42:08;;;;;;;;;;;29.80;39.40;;;;;;5073695;28;20243;-82
2023/06/13 13:44:33;;;;;;;;;;;29.90;39.20;;;;;;5074184;28;19920;-81
2023/06/13 13:46:59;;;;;;;;;;;29.90;40.50;;;;;;5073965;28;19982;-84
2023/06/13 13:49:27;;;;;;;;;;;29.90;40.30;;;;;;5074094;28;19920;-80
2023/06/13 13:51:52;;;;;;;;;;;29.90;39.90;;;;;;5074368;28;20331;-80
2023/06/13 13:54:18;;;;;;;;;;;29.90;40.20;;;;;;5073958;28;19956;-81
2023/06/13 13:56:44;;;;;;;;;;;29.90;41.00;;;;;;5074262;28;19974;-81
2023/06/13 13:59:10;;;;;;;;;;;29.90;40.80;;;;;;5074526;28;19978;-81
2023/06/13 14:01:35;;;;;;;;;;;29.80;40.40;;;;;;5073424;28;19921;-81
2023/06/13 14:04:01;;;;;;;;;;;29.70;40.40;;;;;;5073768;28;19973;-81
2023/06/13 14:06:27;;;;;;;;;;;29.80;40.50;;;;;;5073735;28;19920;-81
2023/06/13 14:08:52;;;;;;;;;;;29.80;40.50;;;;;;5072689;28;19921;-81
2023/06/13 14:11:18;;;;;;;;;;;29.90;40.70;;;;;;5073549;28;19920;-80
2023/06/13 14:13:43;;;;;;;;;;;29.90;39.10;;;;;;5074624;28;19921;-81